Time;durP1;ratioP1;P1;durP2;ratioP2;P2;SDS_P1;SDS_P2;PMS_P1;PMS_P2;Temp;Humidity;BMP_temperature;BMP_pressure;BME280_temperature;BME280_humidity;BME280_pressure;Samples;Min_cycle;Max_cycle;Signal;HPM_P1;HPM_P2
2022/07/18 00:01:49;;;;;;;4.47;2.55;;;16.50;99.90;;;;;;5035460;28;20123;-70
2022/07/18 00:04:14;;;;;;;5.45;2.63;;;16.40;99.90;;;;;;5036552;28;20076;-69
2022/07/18 00:06:40;;;;;;;4.38;2.30;;;16.40;99.90;;;;;;5033572;28;20037;-70
2022/07/18 00:09:05;;;;;;;6.10;2.70;;;16.20;99.90;;;;;;5035306;28;20041;-70
2022/07/18 00:11:31;;;;;;;5.80;2.65;;;16.30;99.90;;;;;;5035023;28;20047;-69
2022/07/18 00:13:57;;;;;;;5.30;2.67;;;16.30;99.90;;;;;;5019614;28;20047;-69
2022/07/18 00:16:25;;;;;;;4.85;2.67;;;16.20;99.90;;;;;;5035089;28;20055;-70
2022/07/18 00:18:51;;;;;;;4.95;2.50;;;16.20;99.90;;;;;;5037175;28;20123;-69
2022/07/18 00:21:17;;;;;;;5.63;2.72;;;16.20;99.90;;;;;;5052399;28;20183;-69
2022/07/18 00:23:42;;;;;;;5.45;2.72;;;16.20;99.90;;;;;;5036033;28;20629;-70
2022/07/18 00:26:08;;;;;;;5.68;2.63;;;16.20;99.90;;;;;;5019685;28;20119;-70
2022/07/18 00:28:34;;;;;;;6.80;3.20;;;16.20;99.90;;;;;;5019101;28;20032;-70
2022/07/18 00:31:00;;;;;;;5.93;3.10;;;16.20;99.90;;;;;;5035940;28;20057;-70
2022/07/18 00:33:25;;;;;;;6.93;3.67;;;16.20;99.90;;;;;;5034985;28;20059;-70
2022/07/18 00:35:51;;;;;;;7.65;3.60;;;16.20;99.90;;;;;;5035970;28;20044;-69
2022/07/18 00:38:17;;;;;;;7.78;4.18;;;16.20;99.90;;;;;;5018537;28;20044;-69
2022/07/18 00:40:43;;;;;;;9.18;4.60;;;16.10;99.90;;;;;;5036075;28;20091;-69
2022/07/18 00:43:12;;;;;;;8.00;3.85;;;16.10;99.90;;;;;;5035125;28;20063;-69
2022/07/18 00:45:38;;;;;;;7.85;3.83;;;16.10;99.90;;;;;;5034638;28;20071;-69
2022/07/18 00:48:07;;;;;;;9.43;4.55;;;16.10;99.90;;;;;;5018207;28;20100;-69
2022/07/18 00:50:33;;;;;;;8.10;4.38;;;16.10;99.90;;;;;;5035650;28;20044;-69
2022/07/18 00:52:58;;;;;;;8.13;4.10;;;16.10;99.90;;;;;;5018746;28;20381;-70
2022/07/18 00:55:24;;;;;;;7.75;3.53;;;16.00;99.90;;;;;;5035400;28;20087;-69
2022/07/18 00:57:51;;;;;;;7.03;3.72;;;16.00;99.90;;;;;;5018486;28;20055;-69
2022/07/18 01:03:01;;;;;;;6.53;2.97;;;15.90;99.90;;;;;;5034347;28;20084;-70
2022/07/18 01:05:27;;;;;;;5.97;3.08;;;15.90;99.90;;;;;;5019023;28;20091;-70
2022/07/18 01:07:52;;;;;;;6.38;2.90;;;15.80;99.90;;;;;;5034717;28;20036;-70
2022/07/18 01:10:18;;;;;;;6.93;2.80;;;15.80;99.90;;;;;;5018282;28;20033;-69
2022/07/18 01:12:45;;;;;;;7.22;3.53;;;15.80;99.90;;;;;;5034775;28;20402;-70
2022/07/18 01:15:11;;;;;;;6.45;3.20;;;15.70;99.90;;;;;;5034731;28;20049;-69
2022/07/18 01:17:37;;;;;;;6.13;2.85;;;15.70;99.90;;;;;;5018477;28;20397;-69
2022/07/18 01:20:05;;;;;;;6.30;3.30;;;15.60;99.90;;;;;;5033200;28;20075;-69
2022/07/18 01:22:31;;;;;;;7.00;3.47;;;15.60;99.90;;;;;;5019157;28;20399;-69
2022/07/18 01:24:56;;;;;;;7.20;3.72;;;15.60;99.90;;;;;;5033667;28;20045;-69
2022/07/18 01:27:22;;;;;;;7.07;3.70;;;15.60;99.90;;;;;;5017858;28;20044;-70
2022/07/18 01:29:51;;;;;;;6.53;3.33;;;15.60;99.90;;;;;;5031807;28;20041;-70
2022/07/18 01:32:17;;;;;;;7.55;3.55;;;15.60;99.90;;;;;;5033620;28;20120;-69
2022/07/18 01:34:46;;;;;;;8.52;4.15;;;15.50;99.90;;;;;;5018039;28;20409;-69
2022/07/18 01:37:11;;;;;;;6.93;3.70;;;15.50;99.90;;;;;;5016689;28;20048;-69
2022/07/18 01:39:37;;;;;;;7.15;3.85;;;15.50;99.90;;;;;;5033675;28;20405;-70
2022/07/18 01:42:05;;;;;;;5.97;2.97;;;15.50;99.90;;;;;;5018142;28;20493;-69
2022/07/18 01:44:32;;;;;;;6.53;3.30;;;15.40;99.90;;;;;;5033817;28;20049;-70
2022/07/18 01:46:57;;;;;;;7.32;3.03;;;15.30;99.90;;;;;;5013836;28;20155;-70
2022/07/18 01:49:24;;;;;;;5.40;2.95;;;15.30;99.90;;;;;;5033679;28;20497;-70
2022/07/18 01:51:52;;;;;;;7.00;2.97;;;15.30;99.90;;;;;;5010229;28;20041;-69
2022/07/18 01:54:23;;;;;;;5.80;2.72;;;15.30;99.90;;;;;;5020893;28;20045;-69
2022/07/18 01:56:48;;;;;;;6.20;2.95;;;15.30;99.90;;;;;;5012842;28;20394;-69
2022/07/18 01:59:14;;;;;;;5.32;2.47;;;15.30;99.90;;;;;;5001959;28;20044;-69
2022/07/18 02:01:40;;;;;;;4.22;2.25;;;15.30;99.90;;;;;;5024732;28;20041;-70
2022/07/18 02:04:05;;;;;;;5.85;2.72;;;15.20;99.90;;;;;;5012399;28;20485;-69
2022/07/18 02:06:31;;;;;;;5.95;2.75;;;15.20;99.90;;;;;;5037209;28;20083;-69
2022/07/18 02:08:57;;;;;;;6.38;2.60;;;15.20;99.90;;;;;;5021580;28;20045;-69
2022/07/18 02:11:23;;;;;;;4.95;2.17;;;15.00;99.90;;;;;;5032489;28;20090;-69
2022/07/18 02:13:48;;;;;;;5.32;2.55;;;14.90;99.90;;;;;;5048962;28;20128;-69
2022/07/18 02:16:14;;;;;;;4.63;2.53;;;14.90;99.90;;;;;;5049196;28;20028;-69
2022/07/18 02:18:39;;;;;;;6.18;2.80;;;14.90;99.90;;;;;;5022107;28;20435;-70
2022/07/18 02:21:07;;;;;;;4.45;2.35;;;14.90;99.90;;;;;;5019767;28;20041;-69
2022/07/18 02:23:33;;;;;;;5.00;1.90;;;14.90;99.90;;;;;;5037359;28;20049;-70
2022/07/18 02:25:58;;;;;;;4.40;2.10;;;14.90;99.90;;;;;;5037401;28;20087;-69
2022/07/18 02:28:24;;;;;;;5.53;2.47;;;14.90;99.90;;;;;;5039146;28;20428;-70
2022/07/18 02:30:50;;;;;;;6.00;2.80;;;14.90;99.90;;;;;;5019403;28;20041;-70
2022/07/18 02:33:16;;;;;;;5.90;2.72;;;14.90;99.90;;;;;;5038198;28;20520;-69
2022/07/18 02:35:42;;;;;;;5.95;2.78;;;14.90;99.90;;;;;;5037080;28;20037;-70
2022/07/18 02:38:08;;;;;;;6.88;3.35;;;14.90;99.90;;;;;;5021098;28;20044;-69
2022/07/18 02:40:33;;;;;;;6.25;3.15;;;14.90;99.90;;;;;;5034996;28;20033;-69
2022/07/18 02:42:59;;;;;;;5.93;3.25;;;14.90;99.90;;;;;;5037999;28;20044;-69
2022/07/18 02:45:25;;;;;;;6.55;3.30;;;14.90;99.90;;;;;;5024120;28;20033;-69
2022/07/18 02:47:51;;;;;;;8.20;3.83;;;14.80;99.90;;;;;;5021684;28;20037;-70
2022/07/18 02:50:17;;;;;;;8.38;3.63;;;14.90;99.90;;;;;;5036011;28;20041;-69
2022/07/18 02:52:43;;;;;;;8.50;4.40;;;14.80;99.90;;;;;;5020183;28;20037;-69
2022/07/18 02:55:10;;;;;;;9.45;4.90;;;14.70;99.90;;;;;;5041264;28;20569;-69
2022/07/18 02:57:35;;;;;;;11.55;4.35;;;14.70;99.90;;;;;;5026681;28;20029;-70
2022/07/18 03:00:05;;;;;;;11.00;4.18;;;14.80;99.90;;;;;;5022580;28;20493;-70
2022/07/18 03:02:30;;;;;;;9.38;4.50;;;14.70;99.90;;;;;;5032479;28;20071;-70
2022/07/18 03:04:56;;;;;;;9.75;4.15;;;14.70;99.90;;;;;;5036111;28;20044;-69
2022/07/18 03:07:21;;;;;;;9.60;4.05;;;14.80;99.90;;;;;;5052763;28;20037;-69
2022/07/18 03:09:47;;;;;;;7.28;4.05;;;14.70;99.90;;;;;;5033523;28;20042;-69
2022/07/18 03:12:13;;;;;;;8.60;4.68;;;14.60;99.90;;;;;;5021370;28;20037;-70
2022/07/18 03:14:38;;;;;;;7.78;4.25;;;14.60;99.90;;;;;;5020410;28;20564;-69
2022/07/18 03:17:04;;;;;;;7.40;4.22;;;14.50;99.90;;;;;;5020658;28;20440;-70
2022/07/18 03:19:29;;;;;;;9.25;4.20;;;14.50;99.90;;;;;;5037504;28;20047;-70
2022/07/18 03:21:55;;;;;;;8.60;4.22;;;14.60;99.90;;;;;;5017661;28;20524;-69
2022/07/18 03:24:21;;;;;;;8.55;4.60;;;14.50;99.90;;;;;;5036463;28;20523;-69
2022/07/18 03:26:46;;;;;;;8.43;5.00;;;14.60;99.90;;;;;;5020312;28;20124;-69
2022/07/18 03:29:12;;;;;;;9.98;4.20;;;14.60;99.90;;;;;;5029876;28;20033;-69
2022/07/18 03:31:38;;;;;;;8.40;4.40;;;14.50;99.90;;;;;;5036430;28;20045;-69
2022/07/18 03:34:04;;;;;;;9.57;4.47;;;14.50;99.90;;;;;;5051059;28;20406;-69
2022/07/18 03:36:30;;;;;;;8.93;3.72;;;14.50;99.90;;;;;;5035802;28;20646;-69
2022/07/18 03:38:55;;;;;;;7.55;3.83;;;14.60;99.90;;;;;;5037070;28;20123;-69
2022/07/18 03:41:21;;;;;;;6.80;3.70;;;14.50;99.90;;;;;;5027794;28;20124;-69
2022/07/18 03:43:47;;;;;;;9.48;4.18;;;14.50;99.90;;;;;;5019534;28;20492;-69
2022/07/18 03:46:12;;;;;;;8.25;3.83;;;14.50;99.90;;;;;;5033834;28;20041;-69
2022/07/18 03:48:38;;;;;;;10.00;4.50;;;14.50;99.90;;;;;;5036600;28;20037;-69
2022/07/18 03:51:04;;;;;;;9.77;5.18;;;14.60;99.90;;;;;;5017220;28;20556;-69
2022/07/18 03:53:31;;;;;;;9.60;5.25;;;14.60;99.90;;;;;;5026936;28;20519;-69
2022/07/18 03:55:56;;;;;;;8.60;5.05;;;14.60;99.90;;;;;;5035156;28;20028;-69
2022/07/18 03:58:22;;;;;;;9.10;5.07;;;14.60;99.90;;;;;;5035263;28;20540;-69
2022/07/18 04:00:48;;;;;;;8.48;4.60;;;14.60;99.90;;;;;;5035261;28;20127;-69
2022/07/18 04:03:14;;;;;;;8.00;4.18;;;14.60;99.90;;;;;;5030717;28;20076;-69
2022/07/18 04:05:40;;;;;;;9.40;4.65;;;14.50;99.90;;;;;;5028142;28;20033;-69
2022/07/18 04:08:05;;;;;;;9.73;4.85;;;14.50;99.90;;;;;;5036119;28;20394;-69
2022/07/18 04:10:31;;;;;;;9.27;3.58;;;14.50;99.90;;;;;;5033844;28;20056;-69
2022/07/18 04:12:57;;;;;;;10.35;4.47;;;14.50;99.90;;;;;;5035569;28;20059;-69
2022/07/18 04:15:24;;;;;;;7.82;3.90;;;14.60;99.90;;;;;;5034702;28;20512;-69
2022/07/18 04:17:50;;;;;;;7.45;3.92;;;14.60;99.90;;;;;;5040051;28;20049;-69
2022/07/18 04:20:17;;;;;;;9.00;4.07;;;14.50;99.90;;;;;;5033158;28;20034;-69
2022/07/18 04:23:04;;;;;;;7.18;3.75;;;14.40;99.90;;;;;;5036028;28;20497;-69
2022/07/18 04:25:35;;;;;;;9.55;4.57;;;14.40;99.90;;;;;;5026838;28;20580;-70
2022/07/18 04:28:00;;;;;;;8.18;4.25;;;14.40;99.90;;;;;;5036878;28;20064;-69
2022/07/18 04:30:27;;;;;;;12.23;5.32;;;14.40;99.90;;;;;;5032971;28;20478;-69
2022/07/18 04:32:55;;;;;;;9.23;4.50;;;14.50;99.90;;;;;;5026375;28;20133;-69
2022/07/18 04:35:22;;;;;;;10.80;5.32;;;14.50;99.90;;;;;;5035716;28;20041;-69
2022/07/18 04:37:49;;;;;;;9.23;5.00;;;14.60;99.90;;;;;;5020316;28;20432;-69
2022/07/18 04:40:15;;;;;;;10.38;5.70;;;14.60;99.90;;;;;;5035453;28;20040;-69
2022/07/18 04:42:41;;;;;;;10.77;5.60;;;14.80;99.90;;;;;;5037049;28;20456;-70
2022/07/18 04:45:07;;;;;;;10.05;5.38;;;14.90;99.90;;;;;;5034813;28;20040;-69
2022/07/18 04:47:33;;;;;;;11.10;5.55;;;15.00;99.90;;;;;;5045082;28;20049;-69
2022/07/18 04:49:59;;;;;;;10.13;5.47;;;15.20;99.90;;;;;;5018917;28;20139;-69
2022/07/18 04:52:25;;;;;;;10.23;5.22;;;15.10;99.90;;;;;;5049387;28;20401;-69
2022/07/18 04:54:51;;;;;;;9.40;5.25;;;15.10;99.90;;;;;;5036950;28;20048;-69
2022/07/18 04:57:17;;;;;;;11.55;5.72;;;15.00;99.90;;;;;;5035925;28;20037;-70
2022/07/18 04:59:44;;;;;;;10.93;5.15;;;15.10;99.90;;;;;;5039345;28;20092;-69
2022/07/18 05:02:10;;;;;;;9.85;4.85;;;15.20;99.90;;;;;;5034863;28;20120;-69
2022/07/18 05:04:36;;;;;;;9.77;4.75;;;15.20;99.90;;;;;;5017093;28;20045;-69
2022/07/18 05:07:03;;;;;;;10.50;5.00;;;15.20;99.90;;;;;;5016165;28;20135;-69
2022/07/18 05:09:28;;;;;;;7.70;4.25;;;15.30;99.90;;;;;;5018746;28;20072;-70
2022/07/18 05:11:54;;;;;;;10.07;5.00;;;15.30;99.90;;;;;;5039601;28;20103;-69
2022/07/18 05:14:20;;;;;;;9.15;4.72;;;15.40;99.90;;;;;;5034674;28;20025;-69
2022/07/18 05:16:46;;;;;;;9.68;4.65;;;15.50;99.90;;;;;;5032272;28;20485;-69
2022/07/18 05:19:12;;;;;;;11.77;4.95;;;15.70;99.90;;;;;;5024893;28;20600;-70
2022/07/18 05:21:38;;;;;;;10.45;4.68;;;15.60;99.90;;;;;;5015886;28;20041;-70
2022/07/18 05:24:04;;;;;;;10.85;5.28;;;15.70;99.90;;;;;;5032701;28;20036;-70
2022/07/18 05:26:29;;;;;;;10.20;4.63;;;15.80;99.90;;;;;;5039117;28;20053;-70
2022/07/18 05:28:55;;;;;;;9.85;5.07;;;15.90;99.90;;;;;;5017579;28;20408;-69
2022/07/18 05:31:20;;;;;;;9.00;4.57;;;15.90;99.90;;;;;;5043601;28;20049;-70
2022/07/18 05:33:46;;;;;;;9.85;5.25;;;16.00;99.90;;;;;;5017852;28;20402;-70
2022/07/18 05:36:11;;;;;;;11.10;4.55;;;16.10;99.90;;;;;;5039111;28;20064;-69
2022/07/18 05:38:37;;;;;;;10.55;4.53;;;16.10;99.90;;;;;;5039224;28;20041;-70
2022/07/18 05:41:04;;;;;;;10.90;4.25;;;16.20;99.90;;;;;;5028233;28;20041;-70
2022/07/18 05:43:30;;;;;;;9.18;4.78;;;16.40;99.90;;;;;;5058437;28;20051;-70
2022/07/18 05:45:56;;;;;;;8.80;4.40;;;16.40;99.90;;;;;;5022558;28;20500;-70
2022/07/18 05:48:21;;;;;;;8.27;4.07;;;16.40;99.90;;;;;;5039139;28;20119;-70
2022/07/18 05:50:47;;;;;;;8.30;4.05;;;16.50;99.90;;;;;;5048323;28;20925;-70
2022/07/18 05:53:12;;;;;;;11.27;4.57;;;16.50;99.90;;;;;;5026753;28;20043;-70
2022/07/18 05:55:38;;;;;;;9.60;3.75;;;16.50;99.90;;;;;;5000063;28;20037;-70
2022/07/18 05:58:03;;;;;;;10.07;4.20;;;16.60;99.90;;;;;;5023470;28;20033;-70
2022/07/18 06:00:29;;;;;;;12.27;4.20;;;16.60;99.90;;;;;;5039222;28;20037;-70
2022/07/18 06:02:56;;;;;;;7.10;3.15;;;16.60;99.90;;;;;;5038201;28;20049;-70
2022/07/18 06:05:22;;;;;;;8.90;3.67;;;16.70;99.90;;;;;;5041786;28;20090;-70
2022/07/18 06:07:48;;;;;;;8.30;3.60;;;16.70;99.90;;;;;;5055218;28;20132;-70
2022/07/18 06:10:14;;;;;;;8.48;3.40;;;16.70;99.90;;;;;;5047721;28;20135;-70
2022/07/18 06:12:40;;;;;;;8.43;3.50;;;16.70;99.90;;;;;;5027361;28;20060;-70
2022/07/18 06:15:07;;;;;;;8.95;3.63;;;16.70;99.90;;;;;;5013052;28;20033;-70
2022/07/18 06:17:33;;;;;;;8.63;3.70;;;16.80;99.90;;;;;;5044608;28;20046;-70
2022/07/18 06:19:58;;;;;;;8.50;3.38;;;16.80;99.90;;;;;;5033296;28;20123;-70
2022/07/18 06:22:24;;;;;;;9.82;3.65;;;16.90;99.90;;;;;;5038669;28;20036;-70
2022/07/18 06:24:50;;;;;;;7.32;3.42;;;16.90;99.90;;;;;;5025318;28;20053;-70
2022/07/18 06:27:16;;;;;;;7.32;3.50;;;16.90;99.90;;;;;;5040474;28;20063;-70
2022/07/18 06:29:41;;;;;;;10.40;3.58;;;17.10;99.90;;;;;;5023095;28;20132;-70
2022/07/18 06:32:07;;;;;;;10.20;3.85;;;17.20;99.90;;;;;;5037892;28;20452;-69
2022/07/18 06:34:33;;;;;;;6.47;3.17;;;17.20;99.90;;;;;;5020352;28;20038;-70
2022/07/18 06:36:58;;;;;;;8.80;3.40;;;17.30;99.90;;;;;;5032428;28;20468;-70
2022/07/18 06:39:24;;;;;;;7.68;3.40;;;17.40;99.90;;;;;;5019872;28;20029;-69
2022/07/18 06:41:49;;;;;;;9.60;3.53;;;17.60;99.90;;;;;;5033921;28;20037;-70
2022/07/18 06:44:15;;;;;;;8.45;2.95;;;17.80;99.90;;;;;;5041256;28;20094;-69
2022/07/18 06:46:41;;;;;;;9.27;3.33;;;17.90;99.90;;;;;;5034979;28;20413;-70
2022/07/18 06:49:07;;;;;;;7.65;3.15;;;18.10;99.90;;;;;;5037460;28;20107;-70
2022/07/18 06:51:33;;;;;;;7.50;2.85;;;18.20;99.90;;;;;;5036902;28;20114;-70
2022/07/18 06:53:59;;;;;;;7.38;3.50;;;18.20;99.90;;;;;;5036671;28;20072;-70
2022/07/18 06:56:25;;;;;;;8.90;2.83;;;18.30;99.90;;;;;;5018387;28;20116;-70
2022/07/18 06:58:51;;;;;;;6.97;2.70;;;18.40;99.90;;;;;;5030248;28;20045;-70
2022/07/18 07:01:18;;;;;;;7.50;3.00;;;18.50;99.90;;;;;;5019242;28;20052;-70
2022/07/18 07:03:45;;;;;;;6.53;2.70;;;18.60;99.90;;;;;;5036399;28;20120;-70
2022/07/18 07:06:10;;;;;;;7.65;2.80;;;18.80;99.90;;;;;;5020770;28;20584;-70
2022/07/18 07:08:36;;;;;;;6.13;2.78;;;18.90;99.90;;;;;;5019539;28;20124;-70
2022/07/18 07:11:02;;;;;;;6.72;2.60;;;19.00;99.90;;;;;;5036467;28;20033;-70
2022/07/18 07:13:28;;;;;;;7.25;2.50;;;19.10;99.90;;;;;;5019478;28;20079;-70
2022/07/18 07:15:53;;;;;;;6.60;2.50;;;19.20;99.90;;;;;;5036132;28;20045;-70
2022/07/18 07:18:19;;;;;;;6.07;2.08;;;19.30;99.90;;;;;;5036073;28;20025;-70
2022/07/18 07:20:46;;;;;;;7.63;2.33;;;19.40;99.90;;;;;;5015982;28;20033;-69
2022/07/18 07:23:12;;;;;;;5.90;2.28;;;19.50;99.90;;;;;;5017517;28;20029;-69
2022/07/18 07:25:39;;;;;;;4.57;2.15;;;19.70;99.90;;;;;;5036319;28;20033;-70
2022/07/18 07:28:05;;;;;;;7.00;2.20;;;19.80;99.90;;;;;;5034923;28;20045;-70
2022/07/18 07:30:31;;;;;;;7.28;2.03;;;19.90;99.90;;;;;;5035479;28;20128;-70
2022/07/18 07:32:57;;;;;;;4.40;1.70;;;20.00;99.90;;;;;;5036735;28;20080;-70
2022/07/18 07:35:23;;;;;;;5.97;2.00;;;20.20;99.90;;;;;;5019462;28;20067;-69
2022/07/18 07:37:51;;;;;;;6.00;2.10;;;20.20;99.90;;;;;;5019115;28;20033;-70
2022/07/18 07:40:18;;;;;;;6.13;2.28;;;20.40;99.90;;;;;;5026233;28;20041;-70
2022/07/18 07:42:44;;;;;;;4.70;1.95;;;20.50;99.90;;;;;;5016789;28;20056;-70
2022/07/18 07:45:10;;;;;;;5.55;2.10;;;20.60;99.90;;;;;;5034491;28;20060;-70
2022/07/18 07:47:37;;;;;;;5.90;2.20;;;20.60;99.90;;;;;;5024379;28;20049;-70
2022/07/18 07:50:04;;;;;;;4.85;1.92;;;20.60;99.90;;;;;;5000585;28;20037;-70
2022/07/18 07:52:30;;;;;;;4.03;1.98;;;20.60;99.90;;;;;;5036344;28;20045;-70
2022/07/18 07:54:56;;;;;;;6.55;2.00;;;20.70;99.90;;;;;;5020099;28;20040;-70
2022/07/18 07:57:22;;;;;;;7.78;2.20;;;20.60;99.90;;;;;;5015819;28;20393;-70
2022/07/18 07:59:47;;;;;;;6.25;2.08;;;20.60;99.90;;;;;;5027314;28;20472;-70
2022/07/18 08:02:14;;;;;;;6.65;2.10;;;20.70;99.90;;;;;;5029659;28;20116;-70
2022/07/18 08:04:41;;;;;;;7.82;2.35;;;20.80;99.90;;;;;;5000783;28;20371;-70
2022/07/18 08:07:06;;;;;;;4.75;2.15;;;20.90;99.90;;;;;;5013970;28;20126;-70
2022/07/18 08:09:32;;;;;;;4.93;2.00;;;21.00;99.90;;;;;;5019858;28;20079;-70
2022/07/18 08:11:58;;;;;;;5.85;2.20;;;21.10;99.90;;;;;;5020084;28;20041;-70
2022/07/18 08:14:23;;;;;;;8.70;2.03;;;21.30;99.90;;;;;;5020162;28;20060;-70
2022/07/18 08:16:49;;;;;;;5.75;2.00;;;21.50;99.90;;;;;;5028964;28;20500;-70
2022/07/18 08:19:15;;;;;;;4.90;1.90;;;21.50;99.90;;;;;;5035861;28;20044;-70
2022/07/18 08:21:40;;;;;;;6.10;2.22;;;21.60;99.90;;;;;;5036140;28;20242;-70
2022/07/18 08:24:06;;;;;;;5.75;1.98;;;21.70;99.90;;;;;;5035488;28;20043;-70
2022/07/18 08:26:34;;;;;;;4.85;1.73;;;21.80;99.90;;;;;;5019795;28;20049;-71
2022/07/18 08:28:59;;;;;;;5.85;2.00;;;21.80;99.90;;;;;;5019164;28;20033;-70
2022/07/18 08:31:25;;;;;;;5.38;2.10;;;21.90;99.90;;;;;;5052054;28;20053;-70
2022/07/18 08:33:50;;;;;;;4.90;2.03;;;22.10;99.90;;;;;;5036153;28;20037;-70
2022/07/18 08:36:16;;;;;;;6.10;2.08;;;22.20;99.90;;;;;;5033737;28;20432;-70
2022/07/18 08:38:42;;;;;;;4.43;1.63;;;22.40;99.90;;;;;;5035633;28;20041;-70
2022/07/18 08:41:09;;;;;;;4.93;1.60;;;22.50;99.90;;;;;;5019302;28;20449;-70
2022/07/18 08:43:35;;;;;;;6.82;2.67;;;22.70;99.90;;;;;;5018155;28;20048;-70
2022/07/18 08:46:05;;;;;;;14.45;2.70;;;22.80;99.90;;;;;;5019025;28;20452;-70
2022/07/18 08:48:31;;;;;;;12.00;3.28;;;22.90;99.90;;;;;;5035378;28;20087;-70
2022/07/18 08:50:59;;;;;;;5.30;1.90;;;23.00;99.90;;;;;;5019394;28;20063;-70
2022/07/18 08:53:25;;;;;;;7.88;3.03;;;23.10;98.60;;;;;;5035271;28;20094;-70
2022/07/18 08:55:50;;;;;;;4.45;1.70;;;23.10;98.90;;;;;;5018868;28;20036;-71
2022/07/18 08:58:17;;;;;;;7.65;2.05;;;23.10;98.70;;;;;;5035691;28;20397;-70
2022/07/18 09:00:44;;;;;;;6.18;1.90;;;23.20;99.60;;;;;;5018670;28;20052;-70
2022/07/18 09:03:10;;;;;;;6.57;1.98;;;23.20;99.30;;;;;;5034225;28;20033;-70
2022/07/18 09:05:36;;;;;;;6.03;1.98;;;23.20;99.60;;;;;;5035202;28;20105;-70
2022/07/18 09:08:28;;;;;;;8.38;2.60;;;23.10;98.30;;;;;;5019098;28;20037;-70
2022/07/18 09:10:55;;;;;;;5.78;2.30;;;23.10;99.40;;;;;;5013831;28;20059;-70
2022/07/18 09:13:33;;;;;;;5.03;1.90;;;23.10;99.20;;;;;;5035281;28;20175;-71
2022/07/18 09:16:13;;;;;;;5.90;2.00;;;23.00;98.70;;;;;;5018633;28;20113;-70
2022/07/18 09:18:44;;;;;;;7.22;2.00;;;23.00;98.90;;;;;;5035207;28;20174;-71
2022/07/18 09:21:17;;;;;;;5.15;1.85;;;23.00;99.90;;;;;;5035371;28;20095;-70
2022/07/18 09:23:48;;;;;;;7.93;2.00;;;23.00;99.90;;;;;;5018991;28;20504;-70
2022/07/18 09:26:37;;;;;;;3.83;1.77;;;23.10;99.90;;;;;;5035340;28;20048;-70
2022/07/18 09:29:03;;;;;;;4.53;1.88;;;23.20;99.90;;;;;;5017234;28;20052;-70
2022/07/18 09:31:29;;;;;;;5.88;1.75;;;23.30;99.90;;;;;;5018470;28;20053;-70
2022/07/18 09:34:01;;;;;;;7.05;1.50;;;23.40;98.80;;;;;;5010474;28;20037;-71
2022/07/18 09:36:28;;;;;;;5.13;1.70;;;23.50;98.80;;;;;;5033474;28;20485;-71
2022/07/18 09:38:53;;;;;;;7.20;1.60;;;23.60;98.20;;;;;;5026394;28;20405;-70
2022/07/18 09:41:28;;;;;;;6.25;1.80;;;23.60;98.40;;;;;;5015349;28;20041;-70
2022/07/18 09:43:54;;;;;;;9.07;2.50;;;23.70;98.30;;;;;;5035493;28;20098;-71
2022/07/18 09:46:19;;;;;;;6.55;2.00;;;23.80;98.00;;;;;;5035218;28;20476;-71
2022/07/18 09:48:45;;;;;;;6.18;2.10;;;23.80;97.40;;;;;;5016578;28;20041;-71
2022/07/18 09:51:11;;;;;;;5.35;1.65;;;24.00;96.90;;;;;;5034365;28;20116;-71
2022/07/18 09:53:41;;;;;;;5.85;1.90;;;24.10;96.50;;;;;;5035109;28;20048;-71
2022/07/18 09:56:13;;;;;;;10.55;2.25;;;24.10;97.00;;;;;;5029931;28;20033;-70
2022/07/18 09:58:41;;;;;;;18.55;3.35;;;24.20;97.00;;;;;;5018542;28;20041;-71
2022/07/18 10:01:10;;;;;;;9.40;1.88;;;24.20;96.60;;;;;;5034853;28;20041;-70
2022/07/18 10:03:36;;;;;;;8.23;1.83;;;24.30;96.60;;;;;;5034928;28;20047;-71
2022/07/18 10:06:03;;;;;;;11.10;1.80;;;24.50;96.30;;;;;;5034000;28;20039;-71
2022/07/18 10:08:31;;;;;;;6.70;1.80;;;24.60;96.40;;;;;;5031859;28;20052;-71
2022/07/18 10:11:00;;;;;;;8.85;1.80;;;24.80;97.50;;;;;;5027906;28;20037;-70
2022/07/18 10:13:28;;;;;;;5.03;2.00;;;24.90;97.00;;;;;;5034500;28;20037;-71
2022/07/18 10:15:54;;;;;;;5.97;1.75;;;25.00;95.60;;;;;;5016637;28;20477;-70
2022/07/18 10:18:21;;;;;;;5.70;1.80;;;25.10;94.70;;;;;;5017132;28;20041;-71
2022/07/18 10:20:55;;;;;;;4.57;2.00;;;25.10;92.30;;;;;;5027161;28;20525;-70
2022/07/18 10:23:30;;;;;;;6.32;2.20;;;25.20;95.40;;;;;;5036121;28;20045;-71
2022/07/18 10:26:18;;;;;;;7.10;1.80;;;25.20;94.70;;;;;;5006076;28;20493;-71
2022/07/18 10:28:56;;;;;;;5.43;2.22;;;25.30;93.00;;;;;;5020477;28;20044;-71
2022/07/18 10:31:29;;;;;;;5.72;2.05;;;25.30;93.00;;;;;;5036512;28;20060;-70
2022/07/18 10:34:11;;;;;;;4.00;1.73;;;25.40;93.10;;;;;;5036987;28;20527;-71
2022/07/18 10:36:36;;;;;;;;;;;25.50;94.10;;;;;;5037279;28;20493;-71
2022/07/18 10:39:14;;;;;;;5.38;2.33;;;25.70;92.80;;;;;;5020878;28;19916;-71
2022/07/18 10:41:42;;;;;;;5.15;2.20;;;25.80;91.80;;;;;;5040113;28;20041;-71
2022/07/18 10:44:23;;;;;;;5.88;2.10;;;25.80;91.20;;;;;;5019284;28;20044;-71
2022/07/18 10:47:12;;;;;;;6.05;2.30;;;25.90;92.20;;;;;;5020482;28;20116;-70
2022/07/18 10:49:47;;;;;;;5.68;2.30;;;25.90;87.70;;;;;;5035310;28;20122;-70
2022/07/18 10:52:33;;;;;;;10.57;2.72;;;26.00;82.80;;;;;;5032814;28;20048;-71
2022/07/18 10:55:04;;;;;;;4.72;2.03;;;26.10;83.40;;;;;;5018699;28;20499;-70
2022/07/18 10:57:36;;;;;;;5.72;2.50;;;26.10;84.90;;;;;;5031230;28;20413;-71
2022/07/18 11:00:09;;;;;;;5.93;2.42;;;26.20;80.00;;;;;;5020285;28;20485;-71
2022/07/18 11:02:46;;;;;;;6.32;2.88;;;26.30;77.70;;;;;;5019278;28;20079;-71
2022/07/18 11:05:27;;;;;;;7.38;2.80;;;26.30;83.10;;;;;;5035419;28;20040;-71
2022/07/18 11:07:59;;;;;;;6.33;3.00;;;26.40;81.30;;;;;;5033070;28;20036;-71
2022/07/18 11:10:43;;;;;;;;;;;26.40;78.20;;;;;;5037966;28;20128;-70
2022/07/18 11:13:24;;;;;;;7.78;3.05;;;26.30;69.70;;;;;;5022486;28;19971;-71
2022/07/18 11:16:16;;;;;;;7.13;3.13;;;26.40;75.90;;;;;;5032671;28;20037;-70
2022/07/18 11:18:42;;;;;;;;;;;26.40;70.90;;;;;;5029737;28;20682;-71
2022/07/18 11:21:28;;;;;;;6.90;3.35;;;26.40;71.10;;;;;;5030420;28;20015;-71
2022/07/18 11:24:03;;;;;;;9.45;3.72;;;26.50;66.30;;;;;;5034807;28;20043;-70
2022/07/18 11:26:29;;;;;;;6.95;2.67;;;26.50;62.10;;;;;;5045992;28;20389;-71
2022/07/18 11:28:59;;;;;;;5.80;2.80;;;26.60;60.60;;;;;;5049896;28;20178;-71
2022/07/18 11:31:26;;;;;;;7.30;3.03;;;26.50;64.50;;;;;;5020229;28;20056;-70
2022/07/18 11:33:51;;;;;;;6.72;2.90;;;26.50;66.20;;;;;;5035168;28;20448;-71
2022/07/18 11:36:21;;;;;;;6.70;3.25;;;26.40;67.30;;;;;;5020133;28;20485;-71
2022/07/18 11:38:49;;;;;;;7.93;3.00;;;26.50;66.10;;;;;;5035621;28;20056;-71
2022/07/18 11:41:15;;;;;;;7.40;3.15;;;26.50;63.40;;;;;;5035343;28;20040;-70
2022/07/18 11:43:44;;;;;;;6.25;3.20;;;26.60;61.90;;;;;;5019223;28;20045;-71
2022/07/18 11:46:12;;;;;;;5.82;2.92;;;26.70;61.20;;;;;;5034544;28;20116;-71
2022/07/18 11:48:38;;;;;;;6.68;3.13;;;26.80;59.70;;;;;;5032096;28;20041;-71
2022/07/18 11:51:11;;;;;;;7.18;2.90;;;26.80;57.50;;;;;;5017326;28;20389;-71
2022/07/18 11:53:43;;;;;;;7.85;3.78;;;26.90;62.00;;;;;;5033726;28;20044;-70
2022/07/18 11:56:09;;;;;;;6.65;3.15;;;27.00;57.30;;;;;;5017952;28;20192;-70
2022/07/18 11:58:37;;;;;;;7.63;3.65;;;27.00;57.30;;;;;;5028725;28;20037;-71
2022/07/18 12:01:03;;;;;;;8.63;3.55;;;27.00;56.70;;;;;;5032961;28;20033;-71
2022/07/18 12:03:29;;;;;;;8.73;3.35;;;27.00;56.90;;;;;;5015107;28;20490;-71
2022/07/18 12:05:55;;;;;;;6.85;3.50;;;27.00;58.10;;;;;;5034925;28;20063;-71
2022/07/18 12:08:31;;;;;;;13.13;4.18;;;27.00;56.70;;;;;;5019468;28;20040;-71
2022/07/18 12:11:12;;;;;;;8.70;3.53;;;27.00;59.00;;;;;;5040192;28;20045;-71
2022/07/18 12:13:40;;;;;;;7.55;3.35;;;27.00;58.40;;;;;;5016408;28;20128;-71
2022/07/18 12:16:06;;;;;;;9.75;3.40;;;27.00;57.50;;;;;;5051322;28;20040;-71
2022/07/18 12:18:32;;;;;;;7.78;3.00;;;27.00;56.90;;;;;;5035368;28;20045;-72
2022/07/18 12:21:10;;;;;;;6.88;3.30;;;26.90;58.80;;;;;;5033650;28;20432;-71
2022/07/18 12:23:36;;;;;;;7.68;3.40;;;27.00;59.60;;;;;;5027671;28;20048;-71
2022/07/18 12:26:01;;;;;;;6.50;3.20;;;27.10;56.90;;;;;;5032441;28;20033;-70
2022/07/18 12:28:28;;;;;;;7.22;3.50;;;26.90;57.00;;;;;;5031046;28;20033;-70
2022/07/18 12:30:54;;;;;;;6.60;3.70;;;26.80;57.30;;;;;;5033374;28;20049;-71
2022/07/18 12:33:20;;;;;;;6.60;3.20;;;26.70;59.00;;;;;;5031075;28;20435;-70
2022/07/18 12:35:58;;;;;;;7.13;3.40;;;26.60;60.20;;;;;;5023052;28;20033;-71
2022/07/18 12:38:24;;;;;;;6.43;3.40;;;26.40;61.40;;;;;;5034379;28;20044;-71
2022/07/18 12:40:59;;;;;;;9.15;3.40;;;26.30;61.30;;;;;;5019308;28;20496;-71
2022/07/18 12:43:37;;;;;;;7.88;3.70;;;26.30;60.90;;;;;;5032430;28;20041;-71
2022/07/18 12:46:07;;;;;;;8.77;3.42;;;26.20;61.60;;;;;;5012100;28;20092;-71
2022/07/18 12:48:33;;;;;;;6.70;3.30;;;26.10;63.50;;;;;;5035640;28;20041;-70
2022/07/18 12:51:03;;;;;;;6.50;3.08;;;26.20;65.50;;;;;;5033161;28;20044;-71